createdAt,value
2023-04-27T00:02:08.297Z,8.20
2023-04-27T00:07:11.184Z,7.68
2023-04-27T00:12:13.949Z,7.75
2023-04-27T00:17:18.341Z,6.88
2023-04-27T00:22:21.333Z,6.10
2023-04-27T00:27:24.116Z,6.88
2023-04-27T00:32:28.268Z,6.72
2023-04-27T00:37:31.248Z,6.88
2023-04-27T00:42:34.069Z,6.13
2023-04-27T00:47:38.609Z,6.32
2023-04-27T00:52:42.417Z,6.28
2023-04-27T00:57:45.153Z,6.55
2023-04-27T01:02:49.554Z,5.72
2023-04-27T01:07:53.735Z,6.03
2023-04-27T01:12:57.553Z,5.28
2023-04-27T01:18:02.372Z,6.00
2023-04-27T01:23:05.276Z,5.53
2023-04-27T01:28:09.437Z,5.25
2023-04-27T01:33:13.469Z,5.50
2023-04-27T01:38:16.295Z,4.90
2023-04-27T01:43:21.445Z,5.38
2023-04-27T01:48:24.416Z,4.85
2023-04-27T01:53:27.234Z,5.13
2023-04-27T01:58:31.553Z,4.93
2023-04-27T02:03:34.571Z,4.50
2023-04-27T02:08:37.640Z,5.35
2023-04-27T02:13:41.769Z,5.38
2023-04-27T02:18:44.639Z,4.97
2023-04-27T02:23:47.553Z,5.60
2023-04-27T02:28:52.315Z,5.50
2023-04-27T02:33:55.814Z,5.53
2023-04-27T02:39:01.590Z,5.60
2023-04-27T02:44:05.973Z,5.43
2023-04-27T02:49:08.766Z,5.38
2023-04-27T02:54:11.544Z,4.85
2023-04-27T02:59:16.022Z,4.65
2023-04-27T03:04:19.552Z,4.47
2023-04-27T03:09:22.402Z,4.55
2023-04-27T03:14:27.017Z,5.13
2023-04-27T03:19:30.068Z,5.30
2023-04-27T03:24:34.303Z,4.00
2023-04-27T03:29:38.451Z,4.85
2023-04-27T03:34:41.340Z,4.32
2023-04-27T03:39:45.084Z,4.28
2023-04-27T03:44:49.987Z,5.07
2023-04-27T03:49:52.876Z,4.97
2023-04-27T03:54:55.875Z,4.80
2023-04-27T04:00:00.051Z,5.28
2023-04-27T04:05:02.975Z,4.95
2023-04-27T04:10:06.936Z,4.18
2023-04-27T04:15:11.516Z,4.72
2023-04-27T04:20:14.567Z,4.18
2023-04-27T04:25:17.366Z,4.55
2023-04-27T04:30:22.884Z,4.53
2023-04-27T04:35:25.683Z,4.63
2023-04-27T04:40:29.025Z,4.80
2023-04-27T04:45:33.288Z,4.88
2023-04-27T04:50:36.306Z,4.65
2023-04-27T04:55:39.200Z,4.13
2023-04-27T05:00:45.312Z,4.78
2023-04-27T05:05:49.198Z,5.32
2023-04-27T05:10:52.030Z,4.35
2023-04-27T05:15:56.330Z,5.18
2023-04-27T05:20:59.239Z,4.93
2023-04-27T05:26:02.000Z,4.78
2023-04-27T05:31:06.446Z,4.82
2023-04-27T05:36:09.901Z,5.53
2023-04-27T05:41:12.674Z,4.82
2023-04-27T05:46:17.118Z,5.10
2023-04-27T05:51:19.935Z,5.80
2023-04-27T05:56:23.371Z,5.97
2023-04-27T06:01:27.563Z,5.95
2023-04-27T06:06:32.752Z,5.28
2023-04-27T06:11:35.690Z,6.80
2023-04-27T06:16:40.570Z,5.90
2023-04-27T06:21:43.806Z,5.97
2023-04-27T06:26:46.739Z,3.17
2023-04-27T06:31:50.972Z,5.07
2023-04-27T06:36:53.861Z,3.30
2023-04-27T06:41:56.673Z,3.30
2023-04-27T06:47:02.597Z,3.53
2023-04-27T06:52:06.766Z,4.18
2023-04-27T06:57:09.748Z,2.45
2023-04-27T07:02:14.020Z,3.92
2023-04-27T07:07:16.817Z,2.42
2023-04-27T07:12:19.567Z,3.00
2023-04-27T07:17:23.734Z,2.47
2023-04-27T07:22:26.849Z,2.38
2023-04-27T07:27:31.883Z,3.00
2023-04-27T07:32:36.822Z,2.85
2023-04-27T07:37:40.424Z,3.83
2023-04-27T07:42:43.285Z,4.00
2023-04-27T07:47:47.583Z,2.92
2023-04-27T07:52:50.707Z,2.70
2023-04-27T07:57:54.534Z,2.60
2023-04-27T08:02:58.737Z,3.22
2023-04-27T08:08:01.907Z,5.40
2023-04-27T08:13:05.044Z,6.88
2023-04-27T08:18:09.138Z,7.38
2023-04-27T08:23:12.400Z,4.13
2023-04-27T08:28:16.265Z,3.92
2023-04-27T08:33:20.368Z,2.95
2023-04-27T08:38:25.021Z,3.20
2023-04-27T08:43:28.480Z,3.47
2023-04-27T08:48:32.547Z,3.35
2023-04-27T08:53:35.674Z,3.38
2023-04-27T08:58:39.317Z,2.80
2023-04-27T09:08:50.610Z,3.20
2023-04-27T09:13:53.498Z,3.35
2023-04-27T09:18:59.408Z,2.47
2023-04-27T09:24:12.309Z,2.47
2023-04-27T09:29:15.255Z,2.88
2023-04-27T09:34:19.916Z,2.70
2023-04-27T09:39:23.192Z,2.70
2023-04-27T09:44:27.457Z,2.83
2023-04-27T09:49:35.499Z,3.42
2023-04-27T09:54:38.721Z,2.63
2023-04-27T09:59:58.719Z,3.05
2023-04-27T10:05:33.291Z,3.10
2023-04-27T10:10:48.707Z,3.10
2023-04-27T10:15:52.383Z,3.22
2023-04-27T10:20:56.553Z,3.25
2023-04-27T10:26:08.306Z,3.40
2023-04-27T10:31:11.916Z,3.13
2023-04-27T10:36:16.730Z,3.10
2023-04-27T10:41:19.512Z,3.15
2023-04-27T10:46:22.395Z,3.40
2023-04-27T10:51:28.600Z,3.30
2023-04-27T10:56:33.495Z,3.28
2023-04-27T11:01:36.916Z,2.80
2023-04-27T11:06:45.976Z,3.38
2023-04-27T11:11:49.069Z,3.17
2023-04-27T11:16:52.189Z,2.97
2023-04-27T11:22:04.257Z,3.60
2023-04-27T11:27:07.323Z,3.30
2023-04-27T11:32:10.196Z,2.88
2023-04-27T11:37:23.482Z,3.42
2023-04-27T11:42:28.435Z,2.95
2023-04-27T11:47:32.736Z,3.45
2023-04-27T11:52:38.175Z,2.85
2023-04-27T11:57:41.146Z,2.90
2023-04-27T12:02:45.284Z,3.63
2023-04-27T12:07:49.527Z,3.40
2023-04-27T12:12:52.360Z,4.07
2023-04-27T12:17:55.177Z,4.78
2023-04-27T12:22:59.419Z,3.65
2023-04-27T12:28:02.583Z,3.40
2023-04-27T12:33:10.881Z,3.28
2023-04-27T12:38:15.140Z,3.70
2023-04-27T12:43:17.950Z,3.95
2023-04-27T12:48:20.727Z,3.50
2023-04-27T12:53:24.991Z,3.72
2023-04-27T12:58:27.739Z,3.35
2023-04-27T13:03:30.771Z,3.65
2023-04-27T13:08:35.105Z,5.22
2023-04-27T13:13:37.909Z,4.75
2023-04-27T13:18:46.239Z,4.82
2023-04-27T13:23:51.178Z,3.85
2023-04-27T13:28:53.913Z,4.47
2023-04-27T13:33:56.987Z,4.53
2023-04-27T13:39:01.915Z,4.03
2023-04-27T13:44:04.758Z,4.20
2023-04-27T13:49:07.574Z,5.43
2023-04-27T13:54:12.037Z,4.88
2023-04-27T13:59:16.573Z,4.70
2023-04-27T14:04:19.579Z,4.85
2023-04-27T14:09:26.925Z,5.07
2023-04-27T14:14:29.859Z,5.15
2023-04-27T14:19:32.934Z,5.00
2023-04-27T14:24:37.056Z,4.63
2023-04-27T14:29:39.819Z,4.50
2023-04-27T14:34:42.640Z,4.95
2023-04-27T14:39:47.184Z,4.35
2023-04-27T14:44:49.940Z,4.72
2023-04-27T14:49:52.835Z,4.13
2023-04-27T14:54:57.270Z,4.10
2023-04-27T15:00:01.211Z,4.22
2023-04-27T15:06:03.006Z,4.07
2023-04-27T15:11:07.158Z,4.20
2023-04-27T15:16:09.929Z,3.97
2023-04-27T15:21:12.652Z,3.97
2023-04-27T15:26:16.760Z,3.92
2023-04-27T15:31:19.679Z,4.03
2023-04-27T15:36:26.576Z,3.90
2023-04-27T15:41:30.782Z,4.38
2023-04-27T15:46:33.882Z,3.90
2023-04-27T15:51:36.689Z,4.22
2023-04-27T15:56:40.815Z,3.97
2023-04-27T16:01:43.661Z,3.45
2023-04-27T16:06:46.894Z,4.32
2023-04-27T16:11:51.032Z,4.03
2023-04-27T16:16:56.127Z,4.20
2023-04-27T16:22:00.077Z,3.88
2023-04-27T16:27:04.554Z,4.05
2023-04-27T16:32:07.488Z,4.25
2023-04-27T16:37:11.230Z,3.85
2023-04-27T16:42:20.583Z,3.55
2023-04-27T16:47:23.491Z,3.90
2023-04-27T16:52:26.419Z,4.07
2023-04-27T16:57:30.546Z,3.75
2023-04-27T17:02:33.462Z,3.47
2023-04-27T17:07:36.282Z,3.60
2023-04-27T17:12:40.807Z,3.80
2023-04-27T17:17:44.266Z,3.70
2023-04-27T17:22:47.195Z,3.30
2023-04-27T17:27:51.344Z,2.92
2023-04-27T17:32:54.196Z,3.75
2023-04-27T17:37:56.995Z,3.60
2023-04-27T17:43:01.085Z,3.60
2023-04-27T17:48:04.503Z,3.70
2023-04-27T17:53:07.315Z,3.50
2023-04-27T17:58:11.380Z,3.00
2023-04-27T18:03:14.365Z,3.17
2023-04-27T18:08:17.186Z,3.17
2023-04-27T18:13:21.379Z,3.08
2023-04-27T18:18:25.353Z,3.05
2023-04-27T18:23:28.271Z,2.85
2023-04-27T18:33:34.812Z,3.42
2023-04-27T18:43:41.552Z,3.60
2023-04-27T18:48:44.312Z,3.60
2023-04-27T18:53:47.036Z,3.30
2023-04-27T18:58:51.618Z,3.55
2023-04-27T19:03:56.167Z,3.05
2023-04-27T19:08:59.067Z,4.03
2023-04-27T19:14:03.240Z,3.38
2023-04-27T19:19:05.992Z,3.90
2023-04-27T19:24:09.163Z,4.60
2023-04-27T19:29:13.733Z,3.63
2023-04-27T19:34:16.707Z,3.33
2023-04-27T19:39:20.748Z,3.85
2023-04-27T19:44:25.183Z,4.45
2023-04-27T19:49:32.699Z,4.30
2023-04-27T19:54:38.360Z,3.50
2023-04-27T19:59:42.918Z,3.60
2023-04-27T20:04:46.220Z,3.55
2023-04-27T20:09:49.252Z,3.22
2023-04-27T20:14:53.630Z,3.85
2023-04-27T20:19:57.155Z,3.60
2023-04-27T20:25:00.202Z,3.65
2023-04-27T20:30:05.040Z,3.50
2023-04-27T20:35:10.321Z,3.85
2023-04-27T20:40:17.409Z,4.00
2023-04-27T20:45:21.752Z,3.97
2023-04-27T20:55:54.979Z,3.53
2023-04-27T21:00:59.185Z,3.85
2023-04-27T21:06:01.987Z,3.97
2023-04-27T21:11:04.923Z,3.50
2023-04-27T21:16:09.301Z,3.42
2023-04-27T21:21:12.093Z,3.70
2023-04-27T21:26:14.841Z,3.78
2023-04-27T21:36:23.540Z,3.80
2023-04-27T21:46:30.392Z,4.00
2023-04-27T21:51:34.478Z,3.33
2023-04-27T21:56:37.899Z,3.85
2023-04-27T22:01:42.162Z,3.92
2023-04-27T22:06:45.042Z,3.95
2023-04-27T22:11:47.850Z,3.75
2023-04-27T22:16:52.131Z,3.97
2023-04-27T22:21:55.334Z,3.65
2023-04-27T22:26:58.382Z,3.60
2023-04-27T22:32:02.654Z,3.72
2023-04-27T22:37:05.998Z,3.20
2023-04-27T22:42:08.791Z,3.65
2023-04-27T22:47:13.144Z,3.72
2023-04-27T22:52:16.604Z,3.75
2023-04-27T22:57:19.477Z,3.28
2023-04-27T23:02:23.879Z,3.20
2023-04-27T23:12:30.188Z,3.30
2023-04-27T23:17:34.649Z,3.28
2023-04-27T23:22:39.791Z,3.33
2023-04-27T23:27:42.942Z,3.13
2023-04-27T23:32:47.177Z,3.35
2023-04-27T23:37:50.044Z,2.83
2023-04-27T23:42:53.303Z,2.95
2023-04-27T23:47:59.549Z,3.17
2023-04-27T23:53:06.005Z,3.28
2023-04-27T23:58:08.854Z,3.47
